sensor_id;sensor_type;location;lat;lon;timestamp;pressure;altitude;pressure_sealevel;temperature;humidity
50484;BME280;36409;52.168;20.878;2022-11-15T00:03:03;100899.62;;;4.95;81.59
50484;BME280;36409;52.168;20.878;2022-11-15T00:05:50;100897.06;;;4.97;81.56
50484;BME280;36409;52.168;20.878;2022-11-15T00:08:50;100891.88;;;4.97;81.21
50484;BME280;36409;52.168;20.878;2022-11-15T00:11:38;100885.02;;;4.99;81.57
50484;BME280;36409;52.168;20.878;2022-11-15T00:14:26;100882.48;;;5.01;80.87
50484;BME280;36409;52.168;20.878;2022-11-15T00:17:14;100886.77;;;5.00;81.32
50484;BME280;36409;52.168;20.878;2022-11-15T00:20:03;100878.16;;;5.01;81.33
50484;BME280;36409;52.168;20.878;2022-11-15T00:22:54;100874.67;;;4.99;81.23
50484;BME280;36409;52.168;20.878;2022-11-15T00:25:42;100866.91;;;4.99;81.75
50484;BME280;36409;52.168;20.878;2022-11-15T00:28:31;100862.58;;;4.98;81.37
50484;BME280;36409;52.168;20.878;2022-11-15T00:31:19;100869.50;;;4.99;81.24
50484;BME280;36409;52.168;20.878;2022-11-15T00:34:07;100859.14;;;4.98;81.32
50484;BME280;36409;52.168;20.878;2022-11-15T00:36:57;100857.41;;;4.98;81.46
50484;BME280;36409;52.168;20.878;2022-11-15T00:39:50;100853.97;;;4.99;81.94
50484;BME280;36409;52.168;20.878;2022-11-15T00:42:37;100847.95;;;5.00;81.71
50484;BME280;36409;52.168;20.878;2022-11-15T00:45:33;100839.34;;;5.00;81.57
50484;BME280;36409;52.168;20.878;2022-11-15T00:48:28;100835.85;;;4.98;81.62
50484;BME280;36409;52.168;20.878;2022-11-15T00:51:16;100828.91;;;4.95;81.42
50484;BME280;36409;52.168;20.878;2022-11-15T00:54:07;100829.76;;;4.94;81.25
50484;BME280;36409;52.168;20.878;2022-11-15T00:56:55;100827.17;;;4.94;82.00
50484;BME280;36409;52.168;20.878;2022-11-15T00:59:43;100819.37;;;4.92;81.33
50484;BME280;36409;52.168;20.878;2022-11-15T01:02:31;100816.83;;;4.94;81.82
50484;BME280;36409;52.168;20.878;2022-11-15T01:05:21;100818.52;;;4.92;81.91
50484;BME280;36409;52.168;20.878;2022-11-15T01:08:13;100802.94;;;4.90;81.74
50484;BME280;36409;52.168;20.878;2022-11-15T01:11:02;100797.77;;;4.90;81.37
50484;BME280;36409;52.168;20.878;2022-11-15T01:13:54;100797.81;;;4.92;81.85
50484;BME280;36409;52.168;20.878;2022-11-15T01:16:42;100783.98;;;4.91;81.58
50484;BME280;36409;52.168;20.878;2022-11-15T01:19:30;100780.55;;;4.91;81.33
50484;BME280;36409;52.168;20.878;2022-11-15T01:22:18;100780.53;;;4.89;81.68
50484;BME280;36409;52.168;20.878;2022-11-15T01:25:09;100794.31;;;4.88;81.88
50484;BME280;36409;52.168;20.878;2022-11-15T01:27:57;100800.34;;;4.89;81.87
50484;BME280;36409;52.168;20.878;2022-11-15T01:30:45;100791.68;;;4.87;81.26
50484;BME280;36409;52.168;20.878;2022-11-15T01:33:35;100799.43;;;4.85;81.84
50484;BME280;36409;52.168;20.878;2022-11-15T01:36:23;100784.75;;;4.84;81.81
50484;BME280;36409;52.168;20.878;2022-11-15T01:39:12;100786.42;;;4.81;81.55
50484;BME280;36409;52.168;20.878;2022-11-15T01:42:08;100782.09;;;4.79;81.51
50484;BME280;36409;52.168;20.878;2022-11-15T01:45:07;100782.94;;;4.78;81.72
50484;BME280;36409;52.168;20.878;2022-11-15T01:48:10;100775.16;;;4.77;82.21
50484;BME280;36409;52.168;20.878;2022-11-15T01:51:01;100774.28;;;4.76;81.54
50484;BME280;36409;52.168;20.878;2022-11-15T01:53:55;100769.99;;;4.77;81.77
50484;BME280;36409;52.168;20.878;2022-11-15T01:56:50;100763.98;;;4.78;82.16
50484;BME280;36409;52.168;20.878;2022-11-15T01:59:41;100756.23;;;4.79;82.15
50484;BME280;36409;52.168;20.878;2022-11-15T02:02:31;100757.06;;;4.77;82.20
50484;BME280;36409;52.168;20.878;2022-11-15T02:05:19;100750.16;;;4.77;82.17
50484;BME280;36409;52.168;20.878;2022-11-15T02:08:22;100744.99;;;4.79;81.85
50484;BME280;36409;52.168;20.878;2022-11-15T02:11:22;100742.39;;;4.77;81.71
50484;BME280;36409;52.168;20.878;2022-11-15T02:14:10;100741.55;;;4.78;81.51
50484;BME280;36409;52.168;20.878;2022-11-15T02:17:11;100741.54;;;4.77;82.20
50484;BME280;36409;52.168;20.878;2022-11-15T02:20:24;100737.23;;;4.79;82.23
50484;BME280;36409;52.168;20.878;2022-11-15T02:27:10;100735.53;;;4.79;81.95
50484;BME280;36409;52.168;20.878;2022-11-15T02:30:24;100732.06;;;4.79;82.54
50484;BME280;36409;52.168;20.878;2022-11-15T02:33:29;100726.89;;;4.79;82.08
50484;BME280;36409;52.168;20.878;2022-11-15T02:36:27;100718.27;;;4.78;81.76
50484;BME280;36409;52.168;20.878;2022-11-15T02:39:25;100720.86;;;4.78;81.76
50484;BME280;36409;52.168;20.878;2022-11-15T02:42:23;100713.95;;;4.77;81.93
50484;BME280;36409;52.168;20.878;2022-11-15T02:45:35;100714.79;;;4.76;81.98
50484;BME280;36409;52.168;20.878;2022-11-15T02:48:28;100715.63;;;4.75;82.04
50484;BME280;36409;52.168;20.878;2022-11-15T02:51:19;100713.10;;;4.78;81.92
50484;BME280;36409;52.168;20.878;2022-11-15T02:54:06;100710.45;;;4.75;82.09
50484;BME280;36409;52.168;20.878;2022-11-15T02:57:00;100701.80;;;4.73;82.24
50484;BME280;36409;52.168;20.878;2022-11-15T03:00:05;100698.34;;;4.71;81.90
50484;BME280;36409;52.168;20.878;2022-11-15T03:03:16;100690.55;;;4.70;81.80
50484;BME280;36409;52.168;20.878;2022-11-15T03:06:15;100684.47;;;4.68;82.09
50484;BME280;36409;52.168;20.878;2022-11-15T03:09:13;100684.45;;;4.64;82.29
50484;BME280;36409;52.168;20.878;2022-11-15T03:12:12;100672.33;;;4.62;82.35
50484;BME280;36409;52.168;20.878;2022-11-15T03:15:23;100674.05;;;4.61;82.39
50484;BME280;36409;52.168;20.878;2022-11-15T03:18:17;100667.98;;;4.59;82.21
50484;BME280;36409;52.168;20.878;2022-11-15T03:21:10;100667.13;;;4.59;82.11
50484;BME280;36409;52.168;20.878;2022-11-15T03:24:02;100668.88;;;4.60;82.07
50484;BME280;36409;52.168;20.878;2022-11-15T03:26:51;100667.98;;;4.59;82.46
50484;BME280;36409;52.168;20.878;2022-11-15T03:29:45;100661.95;;;4.59;82.01
50484;BME280;36409;52.168;20.878;2022-11-15T03:32:38;100660.27;;;4.61;82.34
50484;BME280;36409;52.168;20.878;2022-11-15T03:35:30;100652.52;;;4.61;82.60
50484;BME280;36409;52.168;20.878;2022-11-15T03:38:24;100662.88;;;4.64;82.15
50484;BME280;36409;52.168;20.878;2022-11-15T03:41:23;100650.80;;;4.63;82.63
50484;BME280;36409;52.168;20.878;2022-11-15T03:44:20;100653.38;;;4.63;82.19
50484;BME280;36409;52.168;20.878;2022-11-15T03:47:11;100641.30;;;4.62;82.48
50484;BME280;36409;52.168;20.878;2022-11-15T03:50:09;100647.35;;;4.62;82.45
50484;BME280;36409;52.168;20.878;2022-11-15T03:53:02;100637.84;;;4.60;82.35
50484;BME280;36409;52.168;20.878;2022-11-15T03:55:50;100631.78;;;4.59;82.39
50484;BME280;36409;52.168;20.878;2022-11-15T03:58:37;100625.72;;;4.57;82.05
50484;BME280;36409;52.168;20.878;2022-11-15T04:01:25;100629.14;;;4.55;82.06
50484;BME280;36409;52.168;20.878;2022-11-15T04:04:17;100622.22;;;4.54;82.60
50484;BME280;36409;52.168;20.878;2022-11-15T04:07:04;100617.90;;;4.53;82.55
50484;BME280;36409;52.168;20.878;2022-11-15T04:09:51;100620.48;;;4.53;82.47
50484;BME280;36409;52.168;20.878;2022-11-15T04:12:53;100610.14;;;4.53;81.91
50484;BME280;36409;52.168;20.878;2022-11-15T04:15:40;100608.40;;;4.52;82.68
50484;BME280;36409;52.168;20.878;2022-11-15T04:18:31;100612.70;;;4.50;82.77
50484;BME280;36409;52.168;20.878;2022-11-15T04:21:24;100607.53;;;4.50;82.46
50484;BME280;36409;52.168;20.878;2022-11-15T04:24:30;100610.97;;;4.48;82.57
50484;BME280;36409;52.168;20.878;2022-11-15T04:27:18;100609.22;;;4.47;82.34
50484;BME280;36409;52.168;20.878;2022-11-15T04:30:10;100602.32;;;4.48;82.85
50484;BME280;36409;52.168;20.878;2022-11-15T04:32:59;100605.80;;;4.48;82.62
50484;BME280;36409;52.168;20.878;2022-11-15T04:35:53;100604.89;;;4.46;82.46
50484;BME280;36409;52.168;20.878;2022-11-15T04:39:11;100607.48;;;4.46;82.36
50484;BME280;36409;52.168;20.878;2022-11-15T04:42:02;100600.63;;;4.48;82.40
50484;BME280;36409;52.168;20.878;2022-11-15T04:44:49;100599.72;;;4.46;82.95
50484;BME280;36409;52.168;20.878;2022-11-15T04:47:43;100595.41;;;4.47;82.76
50484;BME280;36409;52.168;20.878;2022-11-15T04:50:40;100602.31;;;4.46;82.71
50484;BME280;36409;52.168;20.878;2022-11-15T04:53:34;100598.88;;;4.47;82.87
50484;BME280;36409;52.168;20.878;2022-11-15T04:56:24;100594.61;;;4.50;82.46
50484;BME280;36409;52.168;20.878;2022-11-15T04:59:11;100592.03;;;4.51;82.82
50484;BME280;36409;52.168;20.878;2022-11-15T05:02:08;100598.05;;;4.50;82.96
50484;BME280;36409;52.168;20.878;2022-11-15T05:05:06;100598.04;;;4.48;82.62
50484;BME280;36409;52.168;20.878;2022-11-15T05:07:54;100591.98;;;4.48;82.96
50484;BME280;36409;52.168;20.878;2022-11-15T05:10:45;100592.87;;;4.48;82.31
50484;BME280;36409;52.168;20.878;2022-11-15T05:13:32;100589.45;;;4.51;82.79
50484;BME280;36409;52.168;20.878;2022-11-15T05:16:20;100580.78;;;4.47;82.45
50484;BME280;36409;52.168;20.878;2022-11-15T05:19:11;100586.76;;;4.45;82.42
50484;BME280;36409;52.168;20.878;2022-11-15T05:22:00;100592.80;;;4.44;82.86
50484;BME280;36409;52.168;20.878;2022-11-15T05:24:51;100588.48;;;4.43;82.39
50484;BME280;36409;52.168;20.878;2022-11-15T05:27:42;100588.48;;;4.43;82.76
50484;BME280;36409;52.168;20.878;2022-11-15T05:30:37;100580.73;;;4.44;82.87
50484;BME280;36409;52.168;20.878;2022-11-15T05:33:25;100584.16;;;4.42;82.82
50484;BME280;36409;52.168;20.878;2022-11-15T05:36:17;100583.25;;;4.40;83.05
50484;BME280;36409;52.168;20.878;2022-11-15T05:39:24;100577.19;;;4.38;82.83
50484;BME280;36409;52.168;20.878;2022-11-15T05:42:21;100578.02;;;4.35;82.93
50484;BME280;36409;52.168;20.878;2022-11-15T05:45:10;100575.44;;;4.35;83.17
50484;BME280;36409;52.168;20.878;2022-11-15T05:48:03;100573.64;;;4.31;82.58
50484;BME280;36409;52.168;20.878;2022-11-15T05:50:53;100571.00;;;4.28;82.49
50484;BME280;36409;52.168;20.878;2022-11-15T05:53:41;100564.97;;;4.26;82.38
50484;BME280;36409;52.168;20.878;2022-11-15T05:56:55;100561.48;;;4.24;82.66
50484;BME280;36409;52.168;20.878;2022-11-15T05:59:55;100570.08;;;4.23;83.16
50484;BME280;36409;52.168;20.878;2022-11-15T06:02:44;100567.48;;;4.21;82.72
50484;BME280;36409;52.168;20.878;2022-11-15T06:05:31;100570.91;;;4.20;83.10
50484;BME280;36409;52.168;20.878;2022-11-15T06:08:22;100569.17;;;4.19;82.92
50484;BME280;36409;52.168;20.878;2022-11-15T06:11:16;100570.84;;;4.15;82.59
50484;BME280;36409;52.168;20.878;2022-11-15T06:14:07;100587.20;;;4.14;82.74
50484;BME280;36409;52.168;20.878;2022-11-15T06:16:57;100582.03;;;4.16;83.02
50484;BME280;36409;52.168;20.878;2022-11-15T06:19:50;100574.28;;;4.16;82.92
50484;BME280;36409;52.168;20.878;2022-11-15T06:22:38;100569.11;;;4.14;83.24
50484;BME280;36409;52.168;20.878;2022-11-15T06:25:26;100577.70;;;4.13;82.65
50484;BME280;36409;52.168;20.878;2022-11-15T06:28:15;100570.80;;;4.14;82.89
50484;BME280;36409;52.168;20.878;2022-11-15T06:31:06;100578.55;;;4.14;83.04
50484;BME280;36409;52.168;20.878;2022-11-15T06:34:00;100583.77;;;4.15;82.96
50484;BME280;36409;52.168;20.878;2022-11-15T06:36:50;100582.94;;;4.18;83.02
50484;BME280;36409;52.168;20.878;2022-11-15T06:39:37;100589.79;;;4.16;82.60
50484;BME280;36409;52.168;20.878;2022-11-15T06:42:25;100594.11;;;4.17;82.69
50484;BME280;36409;52.168;20.878;2022-11-15T06:45:13;100582.09;;;4.19;83.37
50484;BME280;36409;52.168;20.878;2022-11-15T06:48:00;100582.09;;;4.19;83.04
50484;BME280;36409;52.168;20.878;2022-11-15T06:50:54;100574.34;;;4.19;82.78
50484;BME280;36409;52.168;20.878;2022-11-15T06:53:42;100583.79;;;4.18;82.90
50484;BME280;36409;52.168;20.878;2022-11-15T06:56:30;100589.02;;;4.22;82.84
50484;BME280;36409;52.168;20.878;2022-11-15T06:59:19;100584.74;;;4.24;83.24
50484;BME280;36409;52.168;20.878;2022-11-15T07:02:13;100582.17;;;4.25;83.38
50484;BME280;36409;52.168;20.878;2022-11-15T07:05:00;100585.66;;;4.29;83.37
50484;BME280;36409;52.168;20.878;2022-11-15T07:07:52;100589.14;;;4.29;83.32
50484;BME280;36409;52.168;20.878;2022-11-15T07:10:40;100588.25;;;4.29;83.01
50484;BME280;36409;52.168;20.878;2022-11-15T07:13:29;100587.41;;;4.30;83.30
50484;BME280;36409;52.168;20.878;2022-11-15T07:16:20;100583.13;;;4.30;83.25
50484;BME280;36409;52.168;20.878;2022-11-15T07:19:10;100584.83;;;4.30;83.19
50484;BME280;36409;52.168;20.878;2022-11-15T07:21:57;100585.66;;;4.29;82.81
50484;BME280;36409;52.168;20.878;2022-11-15T07:24:45;100584.88;;;4.33;82.82
50484;BME280;36409;52.168;20.878;2022-11-15T07:27:37;100590.11;;;4.38;82.99
50484;BME280;36409;52.168;20.878;2022-11-15T07:30:26;100589.27;;;4.39;83.06
50484;BME280;36409;52.168;20.878;2022-11-15T07:33:19;100586.70;;;4.40;83.45
50484;BME280;36409;52.168;20.878;2022-11-15T07:36:11;100589.33;;;4.43;83.06
50484;BME280;36409;52.168;20.878;2022-11-15T07:39:00;100582.47;;;4.45;82.96
50484;BME280;36409;52.168;20.878;2022-11-15T07:41:51;100587.70;;;4.50;83.37
50484;BME280;36409;52.168;20.878;2022-11-15T07:44:58;100586.02;;;4.52;83.00
50484;BME280;36409;52.168;20.878;2022-11-15T07:47:47;100573.10;;;4.54;83.08
50484;BME280;36409;52.168;20.878;2022-11-15T07:50:41;100568.83;;;4.56;83.07
50484;BME280;36409;52.168;20.878;2022-11-15T07:53:29;100564.51;;;4.56;83.17
50484;BME280;36409;52.168;20.878;2022-11-15T07:56:19;100564.51;;;4.56;83.10
50484;BME280;36409;52.168;20.878;2022-11-15T07:59:15;100554.27;;;4.61;82.65
50484;BME280;36409;52.168;20.878;2022-11-15T08:02:05;100551.69;;;4.64;83.24
50484;BME280;36409;52.168;20.878;2022-11-15T08:04:54;100558.64;;;4.67;83.04
50484;BME280;36409;52.168;20.878;2022-11-15T08:07:43;100544.88;;;4.71;83.27
50484;BME280;36409;52.168;20.878;2022-11-15T08:10:30;100540.61;;;4.74;82.97
50484;BME280;36409;52.168;20.878;2022-11-15T08:13:27;100535.54;;;4.82;83.16
50484;BME280;36409;52.168;20.878;2022-11-15T08:16:15;100536.48;;;4.87;83.34
50484;BME280;36409;52.168;20.878;2022-11-15T08:19:06;100539.97;;;4.91;83.12
50484;BME280;36409;52.168;20.878;2022-11-15T08:21:53;100533.95;;;4.93;83.09
50484;BME280;36409;52.168;20.878;2022-11-15T08:24:41;100534.83;;;4.94;83.08
50484;BME280;36409;52.168;20.878;2022-11-15T08:27:29;100531.40;;;4.95;83.20
50484;BME280;36409;52.168;20.878;2022-11-15T08:30:18;100522.84;;;5.01;82.90
50484;BME280;36409;52.168;20.878;2022-11-15T08:33:09;100526.28;;;5.01;83.16
50484;BME280;36409;52.168;20.878;2022-11-15T08:35:58;100522.04;;;5.06;83.38
50484;BME280;36409;52.168;20.878;2022-11-15T08:38:56;100517.72;;;5.07;83.06
50484;BME280;36409;52.168;20.878;2022-11-15T08:41:44;100522.09;;;5.13;82.79
50484;BME280;36409;52.168;20.878;2022-11-15T08:44:31;100522.14;;;5.19;82.89
50484;BME280;36409;52.168;20.878;2022-11-15T08:47:21;100523.02;;;5.19;83.14
50484;BME280;36409;52.168;20.878;2022-11-15T08:50:09;100525.66;;;5.22;83.12
50484;BME280;36409;52.168;20.878;2022-11-15T08:53:05;100529.98;;;5.26;83.31
50484;BME280;36409;52.168;20.878;2022-11-15T08:55:53;100521.41;;;5.29;83.39
50484;BME280;36409;52.168;20.878;2022-11-15T08:58:48;100523.16;;;5.35;83.10
50484;BME280;36409;52.168;20.878;2022-11-15T09:01:44;100508.52;;;5.37;82.77
50484;BME280;36409;52.168;20.878;2022-11-15T09:04:32;100509.41;;;5.37;82.83
50484;BME280;36409;52.168;20.878;2022-11-15T09:07:29;100510.25;;;5.36;83.24
50484;BME280;36409;52.168;20.878;2022-11-15T09:10:22;100503.34;;;5.37;83.00
50484;BME280;36409;52.168;20.878;2022-11-15T09:13:15;100501.63;;;5.37;82.69
50484;BME280;36409;52.168;20.878;2022-11-15T09:16:04;100498.16;;;5.37;82.63
50484;BME280;36409;52.168;20.878;2022-11-15T09:18:54;100489.58;;;5.39;82.89
50484;BME280;36409;52.168;20.878;2022-11-15T09:21:43;100485.29;;;5.45;83.32
50484;BME280;36409;52.168;20.878;2022-11-15T09:24:30;100487.06;;;5.49;83.11
50484;BME280;36409;52.168;20.878;2022-11-15T09:27:21;100482.77;;;5.52;82.98
50484;BME280;36409;52.168;20.878;2022-11-15T09:30:10;100485.40;;;5.57;83.04
50484;BME280;36409;52.168;20.878;2022-11-15T09:33:06;100481.11;;;5.61;82.48
50484;BME280;36409;52.168;20.878;2022-11-15T09:35:57;100484.58;;;5.63;82.90
50484;BME280;36409;52.168;20.878;2022-11-15T09:38:54;100476.81;;;5.64;82.80
50484;BME280;36409;52.168;20.878;2022-11-15T09:42:12;100474.25;;;5.66;82.89
50484;BME280;36409;52.168;20.878;2022-11-15T09:45:18;100473.40;;;5.67;82.66
50484;BME280;36409;52.168;20.878;2022-11-15T09:48:19;100469.95;;;5.68;82.75
50484;BME280;36409;52.168;20.878;2022-11-15T09:51:16;100459.56;;;5.66;82.79
50484;BME280;36409;52.168;20.878;2022-11-15T09:54:00;100466.52;;;5.70;83.23
50484;BME280;36409;52.168;20.878;2022-11-15T09:56:52;100458.77;;;5.75;82.88
50484;BME280;36409;52.168;20.878;2022-11-15T09:59:39;100443.27;;;5.78;83.00
50484;BME280;36409;52.168;20.878;2022-11-15T10:02:29;100440.67;;;5.81;82.83
50484;BME280;36409;52.168;20.878;2022-11-15T10:05:04;100442.41;;;5.82;82.79
50484;BME280;36409;52.168;20.878;2022-11-15T10:07:44;100438.10;;;5.86;82.46
50484;BME280;36409;52.168;20.878;2022-11-15T10:10:26;100426.91;;;5.92;82.86
50484;BME280;36409;52.168;20.878;2022-11-15T10:12:56;100433.01;;;5.95;82.97
50484;BME280;36409;52.168;20.878;2022-11-15T10:15:27;100423.55;;;6.00;82.88
50484;BME280;36409;52.168;20.878;2022-11-15T10:18:15;100429.61;;;6.04;82.74
50484;BME280;36409;52.168;20.878;2022-11-15T10:20:50;100427.92;;;6.08;82.90
50484;BME280;36409;52.168;20.878;2022-11-15T10:23:22;100426.20;;;6.14;82.78
50484;BME280;36409;52.168;20.878;2022-11-15T10:26:04;100427.96;;;6.20;82.99
50484;BME280;36409;52.168;20.878;2022-11-15T10:28:36;100421.95;;;6.23;83.25
50484;BME280;36409;52.168;20.878;2022-11-15T10:31:24;100414.16;;;6.26;82.73
50484;BME280;36409;52.168;20.878;2022-11-15T10:34:08;100420.25;;;6.29;82.56
50484;BME280;36409;52.168;20.878;2022-11-15T10:36:44;100414.18;;;6.29;82.68
50484;BME280;36409;52.168;20.878;2022-11-15T10:39:21;100415.94;;;6.33;81.87
50484;BME280;36409;52.168;20.878;2022-11-15T10:41:57;100411.63;;;6.35;82.29
50484;BME280;36409;52.168;20.878;2022-11-15T10:44:42;100407.31;;;6.39;82.16
50484;BME280;36409;52.168;20.878;2022-11-15T10:47:29;100404.73;;;6.43;82.54
50484;BME280;36409;52.168;20.878;2022-11-15T10:52:53;100402.16;;;6.54;82.55
50484;BME280;36409;52.168;20.878;2022-11-15T10:55:25;100396.13;;;6.58;82.52
50484;BME280;36409;52.168;20.878;2022-11-15T10:58:01;100393.55;;;6.61;82.50
50484;BME280;36409;52.168;20.878;2022-11-15T11:00:34;100390.97;;;6.66;82.43
50484;BME280;36409;52.168;20.878;2022-11-15T11:03:05;100390.98;;;6.71;82.40
50484;BME280;36409;52.168;20.878;2022-11-15T11:05:43;100388.39;;;6.75;82.62
50484;BME280;36409;52.168;20.878;2022-11-15T11:08:23;100384.06;;;6.74;82.50
50484;BME280;36409;52.168;20.878;2022-11-15T11:10:56;100388.41;;;6.78;82.15
50484;BME280;36409;52.168;20.878;2022-11-15T11:13:32;100388.41;;;6.83;82.48
50484;BME280;36409;52.168;20.878;2022-11-15T11:16:18;100383.23;;;6.86;82.67
50484;BME280;36409;52.168;20.878;2022-11-15T11:18:56;100380.64;;;6.91;82.51
50484;BME280;36409;52.168;20.878;2022-11-15T11:21:43;100381.48;;;6.93;82.42
50484;BME280;36409;52.168;20.878;2022-11-15T11:24:18;100382.38;;;6.92;82.36
50484;BME280;36409;52.168;20.878;2022-11-15T11:27:04;100378.05;;;6.95;82.42
50484;BME280;36409;52.168;20.878;2022-11-15T11:30:00;100375.43;;;6.99;82.04
50484;BME280;36409;52.168;20.878;2022-11-15T11:32:55;100371.11;;;7.01;82.71
50484;BME280;36409;52.168;20.878;2022-11-15T11:35:32;100360.73;;;7.01;82.09
50484;BME280;36409;52.168;20.878;2022-11-15T11:38:17;100357.30;;;7.03;82.47
50484;BME280;36409;52.168;20.878;2022-11-15T11:40:59;100352.95;;;7.04;81.88
50484;BME280;36409;52.168;20.878;2022-11-15T11:43:36;100350.36;;;7.04;82.04
50484;BME280;36409;52.168;20.878;2022-11-15T11:46:35;100343.44;;;7.06;82.38
50484;BME280;36409;52.168;20.878;2022-11-15T11:49:18;100338.25;;;7.10;81.99
50484;BME280;36409;52.168;20.878;2022-11-15T11:51:55;100339.11;;;7.14;81.97
50484;BME280;36409;52.168;20.878;2022-11-15T11:54:40;100334.77;;;7.13;81.94
50484;BME280;36409;52.168;20.878;2022-11-15T11:57:23;100335.66;;;7.14;82.11
50484;BME280;36409;52.168;20.878;2022-11-15T11:59:58;100327.86;;;7.15;81.94
50484;BME280;36409;52.168;20.878;2022-11-15T12:02:31;100323.52;;;7.11;82.08
50484;BME280;36409;52.168;20.878;2022-11-15T12:05:20;100322.67;;;7.10;81.69
50484;BME280;36409;52.168;20.878;2022-11-15T12:07:54;100322.66;;;7.12;82.07
50484;BME280;36409;52.168;20.878;2022-11-15T12:10:33;100312.30;;;7.14;81.62
50484;BME280;36409;52.168;20.878;2022-11-15T12:13:07;100327.86;;;7.15;81.87
50484;BME280;36409;52.168;20.878;2022-11-15T12:15:39;100322.67;;;7.10;81.85
50484;BME280;36409;52.168;20.878;2022-11-15T12:18:13;100314.02;;;7.04;81.62
50484;BME280;36409;52.168;20.878;2022-11-15T12:20:52;100316.62;;;6.99;81.41
50484;BME280;36409;52.168;20.878;2022-11-15T12:23:26;100314.02;;;6.99;81.78
50484;BME280;36409;52.168;20.878;2022-11-15T12:25:59;100315.75;;;6.97;81.05
50484;BME280;36409;52.168;20.878;2022-11-15T12:28:37;100319.20;;;6.93;81.71
50484;BME280;36409;52.168;20.878;2022-11-15T12:31:35;100307.95;;;6.94;81.35
50484;BME280;36409;52.168;20.878;2022-11-15T12:34:29;100302.77;;;6.94;81.53
50484;BME280;36409;52.168;20.878;2022-11-15T12:37:02;100301.91;;;6.98;81.62
50484;BME280;36409;52.168;20.878;2022-11-15T12:40:21;100297.59;;;7.00;81.53
50484;BME280;36409;52.168;20.878;2022-11-15T12:43:35;100293.27;;;6.99;81.78
50484;BME280;36409;52.168;20.878;2022-11-15T12:46:10;100282.01;;;7.02;81.94
50484;BME280;36409;52.168;20.878;2022-11-15T12:48:57;100286.32;;;7.04;81.87
50484;BME280;36409;52.168;20.878;2022-11-15T12:58:26;100282.02;;;7.08;81.82
50484;BME280;36409;52.168;20.878;2022-11-15T13:00:59;100282.88;;;7.07;81.31
50484;BME280;36409;52.168;20.878;2022-11-15T13:03:29;100285.48;;;7.02;81.35
50484;BME280;36409;52.168;20.878;2022-11-15T13:08:44;100284.60;;;6.94;81.35
50484;BME280;36409;52.168;20.878;2022-11-15T13:11:53;100282.89;;;6.90;81.17
50484;BME280;36409;52.168;20.878;2022-11-15T13:14:42;100277.69;;;6.88;81.17
50484;BME280;36409;52.168;20.878;2022-11-15T13:17:31;100274.23;;;6.89;81.33
50484;BME280;36409;52.168;20.878;2022-11-15T13:20:18;100267.33;;;6.90;81.74
50484;BME280;36409;52.168;20.878;2022-11-15T13:22:52;100266.45;;;6.88;81.61
50484;BME280;36409;52.168;20.878;2022-11-15T13:25:46;100265.59;;;6.84;81.45
50484;BME280;36409;52.168;20.878;2022-11-15T13:28:26;100266.45;;;6.80;81.29
50484;BME280;36409;52.168;20.878;2022-11-15T13:31:01;100268.19;;;6.73;81.33
50484;BME280;36409;52.168;20.878;2022-11-15T13:33:34;100256.08;;;6.71;81.38
50484;BME280;36409;52.168;20.878;2022-11-15T13:36:07;100253.50;;;6.66;81.32
50484;BME280;36409;52.168;20.878;2022-11-15T13:38:39;100253.50;;;6.66;81.58
50484;BME280;36409;52.168;20.878;2022-11-15T13:41:19;100254.36;;;6.70;81.63
50484;BME280;36409;52.168;20.878;2022-11-15T13:43:52;100255.20;;;6.65;81.48
50484;BME280;36409;52.168;20.878;2022-11-15T13:46:26;100246.58;;;6.68;81.31
50484;BME280;36409;52.168;20.878;2022-11-15T13:49:11;100250.02;;;6.65;81.80
50484;BME280;36409;52.168;20.878;2022-11-15T13:51:44;100251.77;;;6.65;81.39
50484;BME280;36409;52.168;20.878;2022-11-15T13:54:19;100247.44;;;6.64;81.27
50484;BME280;36409;52.168;20.878;2022-11-15T13:56:55;100251.77;;;6.63;81.62
50484;BME280;36409;52.168;20.878;2022-11-15T13:59:27;100250.03;;;6.59;81.29
50484;BME280;36409;52.168;20.878;2022-11-15T14:01:59;100252.61;;;6.56;81.21
50484;BME280;36409;52.168;20.878;2022-11-15T14:04:30;100252.62;;;6.50;81.53
50484;BME280;36409;52.168;20.878;2022-11-15T14:07:03;100252.61;;;6.44;81.19
50484;BME280;36409;52.168;20.878;2022-11-15T14:09:34;100254.33;;;6.40;81.45
50484;BME280;36409;52.168;20.878;2022-11-15T14:12:26;100247.42;;;6.38;81.40
50484;BME280;36409;52.168;20.878;2022-11-15T14:14:55;100244.82;;;6.34;81.10
50484;BME280;36409;52.168;20.878;2022-11-15T14:17:36;100243.11;;;6.30;81.38
50484;BME280;36409;52.168;20.878;2022-11-15T14:20:24;100249.99;;;6.31;81.53
50484;BME280;36409;52.168;20.878;2022-11-15T14:23:00;100239.62;;;6.27;81.19
50484;BME280;36409;52.168;20.878;2022-11-15T14:25:30;100232.71;;;6.24;81.56
50484;BME280;36409;52.168;20.878;2022-11-15T14:28:11;100223.20;;;6.23;81.24
50484;BME280;36409;52.168;20.878;2022-11-15T14:30:42;100229.26;;;6.21;80.87
50484;BME280;36409;52.168;20.878;2022-11-15T14:33:23;100214.58;;;6.18;81.16
50484;BME280;36409;52.168;20.878;2022-11-15T14:35:53;100224.05;;;6.14;81.58
50484;BME280;36409;52.168;20.878;2022-11-15T14:38:24;100222.32;;;6.12;81.25
50484;BME280;36409;52.168;20.878;2022-11-15T14:40:53;100232.69;;;6.06;81.10
50484;BME280;36409;52.168;20.878;2022-11-15T14:43:24;100231.80;;;6.00;81.15
50484;BME280;36409;52.168;20.878;2022-11-15T14:45:52;100238.67;;;5.97;81.06
50484;BME280;36409;52.168;20.878;2022-11-15T14:48:21;100239.53;;;5.96;81.21
50484;BME280;36409;52.168;20.878;2022-11-15T14:50:50;100241.25;;;5.94;81.25
50484;BME280;36409;52.168;20.878;2022-11-15T14:53:21;100241.27;;;5.91;81.13
50484;BME280;36409;52.168;20.878;2022-11-15T14:55:51;100230.00;;;5.87;81.40